Monterey Peninsula Airport
KMRY : now visible

Airfield :











YOU CAN JOIN US ON...

 
LOGIN :

Register | Disclaimer

   EN    FR    IT 

 









Legend :    VFR   Marginal VFR   IFR   Intensive IFR   Very Intensive IFR
Visi :
Ceiling :
>= 8 km
>= 3000ft
5 to 8 km
1000 to 3000 ft
1500m to 5 km
500 to 1000 ft
800 to 1500m
200 to 500 ft
< 800m
< 200 ft
Symbols :   Thunderstorms  Fog  Heavy snow  Heavy precipitations  Wind > 20 kt






- Airport Elevation : 257 ft
- IATA code : MRY


KMRY - Monterey Peninsula

CURRENT METAR :
  • 261454Z AUTO 10005KT 10SM CLR 04/02 A3018 RMK AO2 SLP235 T00440022 53002

EXPIRED METARs :
  • 261354Z AUTO 11006KT 10SM CLR 05/03 A3018 RMK AO2 SLP232 T00500028
  • 261254Z AUTO 11007KT 10SM CLR 05/03 A3018 RMK AO2 SLP232 T00500028

TAF KMRY
Valid from the 26 at 12:00 until the 27 at 12:00 UTC


261123Z 2612/2712 12005KT P6SM SKC
FM261900 34006KT P6SM SKC
FM262000 29008KT P6SM SKC
FM270300 VRB03KT P6SM SKC
FM270500 12004KT P6SM SKC
KZOA FIR / North America



MET'MAP, your aeronautical weather chart ! - Copyright ORBIFLY December 2007 - Disclaimer

ORBIFLY MET'MAP TEAM :

Programming & Development : Alexandra Zaïnal
Concept & original design : Baudouin d'Aumeries
Assistance for programming : Marc-Olivier Méhu
Technical & hardware support : Manuel Goepfert

Contact : metmap@orbifly.com




SOURCES & CREDITS :

   NOAA       Earth
Advisory